Time;durP1;ratioP1;P1;durP2;ratioP2;P2;SDS_P1;SDS_P2;PMS_P1;PMS_P2;Temp;Humidity;BMP_temperature;BMP_pressure;BME280_temperature;BME280_humidity;BME280_pressure;Samples;Min_cycle;Max_cycle;Signal;HPM_P1;HPM_P2
2022/04/06 00:00:46;;;;;;;26.10;12.60;;;;;;;;;;5067832;28;20032;-61
2022/04/06 00:03:12;;;;;;;25.58;11.75;;;;;;;;;;5070930;28;20449;-61
2022/04/06 00:05:39;;;;;;;23.75;11.98;;;;;;;;;;5068676;28;20181;-61
2022/04/06 00:08:05;;;;;;;24.02;11.38;;;;;;;;;;5052420;28;20079;-61
2022/04/06 00:10:31;;;;;;;26.13;11.10;;;;;;;;;;5067419;28;20425;-61
2022/04/06 00:12:58;;;;;;;25.65;12.38;;;;;;;;;;5050054;28;20029;-61
2022/04/06 00:15:24;;;;;;;26.50;10.95;;;;;;;;;;5070410;28;20416;-62
2022/04/06 00:17:50;;;;;;;25.55;12.52;;;;;;;;;;5069292;28;20070;-61
2022/04/06 00:20:16;;;;;;;34.85;13.43;;;;;;;;;;5067939;28;20036;-61
2022/04/06 00:22:42;;;;;;;31.52;12.77;;;;;;;;;;5069561;28;20393;-61
2022/04/06 00:25:09;;;;;;;27.27;12.77;;;;;;;;;;5068126;28;20032;-60
2022/04/06 00:27:35;;;;;;;30.92;13.43;;;;;;;;;;5050871;28;20071;-60
2022/04/06 00:30:01;;;;;;;29.40;13.00;;;;;;;;;;5068450;28;20091;-62
2022/04/06 00:32:27;;;;;;;31.10;12.45;;;;;;;;;;5069365;28;20036;-60
2022/04/06 00:37:38;;;;;;;30.00;14.32;;;;;;;;;;5066857;28;20464;-62
2022/04/06 00:40:05;;;;;;;33.10;13.13;;;;;;;;;;5052468;28;20043;-61
2022/04/06 00:42:31;;;;;;;36.53;15.25;;;;;;;;;;5069742;28;20124;-62
2022/04/06 00:44:57;;;;;;;34.70;14.20;;;;;;;;;;5035330;28;20474;-61
2022/04/06 00:47:23;;;;;;;40.22;15.02;;;;;;;;;;5068596;28;20068;-61
2022/04/06 00:49:49;;;;;;;29.20;11.43;;;;;;;;;;5064696;28;20041;-62
2022/04/06 00:52:15;;;;;;;29.73;14.02;;;;;;;;;;5068625;28;20064;-60
2022/04/06 00:54:42;;;;;;;26.48;12.73;;;;;;;;;;5069978;28;20029;-63
2022/04/06 00:57:08;;;;;;;32.45;15.40;;;;;;;;;;5068618;28;20053;-60
2022/04/06 00:59:34;;;;;;;37.72;14.90;;;;;;;;;;5069590;28;20049;-61
2022/04/06 01:02:00;;;;;;;37.90;15.85;;;;;;;;;;5068231;28;20494;-61
2022/04/06 01:04:27;;;;;;;35.67;15.73;;;;;;;;;;5067619;28;20039;-61
2022/04/06 01:06:53;;;;;;;45.95;19.35;;;;;;;;;;5066992;28;20033;-60
2022/04/06 01:09:20;;;;;;;38.97;19.17;;;;;;;;;;5068803;28;20036;-61
2022/04/06 01:11:50;;;;;;;49.55;20.20;;;;;;;;;;5067404;28;20052;-62
2022/04/06 01:14:17;;;;;;;43.58;20.70;;;;;;;;;;5067211;28;20053;-61
2022/04/06 01:16:56;;;;;;;45.28;21.02;;;;;;;;;;5067305;28;20036;-62
2022/04/06 01:19:22;;;;;;;70.60;24.25;;;;;;;;;;5068751;28;20044;-62
2022/04/06 01:21:48;;;;;;;47.08;20.92;;;;;;;;;;5065052;28;20506;-61
2022/04/06 01:24:14;;;;;;;51.65;22.48;;;;;;;;;;5068425;28;20033;-61
2022/04/06 01:26:40;;;;;;;49.10;22.13;;;;;;;;;;5069067;28;20064;-64
2022/04/06 01:29:06;;;;;;;50.67;23.17;;;;;;;;;;5067315;28;20037;-61
2022/04/06 01:31:32;;;;;;;52.35;24.90;;;;;;;;;;5067665;28;20094;-61
2022/04/06 01:33:58;;;;;;;51.10;25.45;;;;;;;;;;5068387;28;20036;-63
2022/04/06 01:36:24;;;;;;;52.17;24.85;;;;;;;;;;5067983;28;21341;-62
2022/04/06 01:38:50;;;;;;;53.30;25.40;;;;;;;;;;5048972;28;20070;-62
2022/04/06 01:41:17;;;;;;;71.15;30.48;;;;;;;;;;5050356;28;20047;-62
2022/04/06 01:43:43;;;;;;;62.90;27.52;;;;;;;;;;5082634;28;20040;-61
2022/04/06 01:46:09;;;;;;;52.00;24.30;;;;;;;;;;5066404;28;20051;-62
2022/04/06 01:52:11;;;;;;;59.38;26.35;;;;;;;;;;5049982;28;20177;-60
2022/04/06 01:54:05;;;;;;;46.60;24.60;;;;;;;;;;5067166;28;20036;-61
2022/04/06 01:56:31;;;;;;;47.22;22.50;;;;;;;;;;5066963;28;20048;-61
2022/04/06 01:58:57;;;;;;;45.58;21.55;;;;;;;;;;5046847;28;20045;-60
2022/04/06 02:01:23;;;;;;;43.58;20.23;;;;;;;;;;5067754;28;20053;-63
2022/04/06 02:03:50;;;;;;;47.67;21.17;;;;;;;;;;5065590;28;20040;-64
2022/04/06 02:06:17;;;;;;;39.53;20.13;;;;;;;;;;5082385;28;20364;-62
2022/04/06 02:08:43;;;;;;;35.65;18.45;;;;;;;;;;5066794;28;20551;-61
2022/04/06 02:11:09;;;;;;;45.97;20.52;;;;;;;;;;5065587;28;20076;-62
2022/04/06 02:13:35;;;;;;;50.72;21.88;;;;;;;;;;5048555;28;20754;-62
2022/04/06 02:16:02;;;;;;;43.33;19.35;;;;;;;;;;5063313;28;20200;-63
2022/04/06 02:18:28;;;;;;;44.33;19.70;;;;;;;;;;5082715;28;20032;-63
2022/04/06 02:20:54;;;;;;;40.45;18.58;;;;;;;;;;5049086;28;20494;-63
2022/04/06 02:23:20;;;;;;;37.42;19.48;;;;;;;;;;5066149;28;20508;-62
2022/04/06 02:25:46;;;;;;;42.80;19.55;;;;;;;;;;5048167;28;20090;-62
2022/04/06 02:28:12;;;;;;;44.15;19.98;;;;;;;;;;5065439;28;20036;-62
2022/04/06 02:30:38;;;;;;;42.50;18.48;;;;;;;;;;5065049;28;20037;-61
2022/04/06 02:33:04;;;;;;;39.63;18.55;;;;;;;;;;5066963;28;20152;-60
2022/04/06 02:35:31;;;;;;;37.17;17.70;;;;;;;;;;5065549;28;20048;-61
2022/04/06 02:37:57;;;;;;;43.03;17.95;;;;;;;;;;5048980;28;20045;-61
2022/04/06 02:40:23;;;;;;;34.53;14.70;;;;;;;;;;5066305;28;20094;-61
2022/04/06 02:42:49;;;;;;;43.55;17.23;;;;;;;;;;5066934;28;20064;-61
2022/04/06 02:45:15;;;;;;;36.20;17.10;;;;;;;;;;5065188;28;20085;-61
2022/04/06 02:47:41;;;;;;;40.88;15.50;;;;;;;;;;5066529;28;20098;-60
2022/04/06 02:50:07;;;;;;;31.90;12.80;;;;;;;;;;5065915;28;20032;-62
2022/04/06 02:52:34;;;;;;;34.08;15.38;;;;;;;;;;5048631;28;20033;-61
2022/04/06 02:55:00;;;;;;;31.75;14.45;;;;;;;;;;5065280;28;20059;-63
2022/04/06 02:57:26;;;;;;;32.78;14.65;;;;;;;;;;5066441;28;20037;-61
2022/04/06 02:59:52;;;;;;;28.52;13.57;;;;;;;;;;5064706;28;20094;-62
2022/04/06 03:02:18;;;;;;;29.08;12.02;;;;;;;;;;5066759;28;20043;-62
2022/04/06 03:04:44;;;;;;;30.33;12.25;;;;;;;;;;5065324;28;20063;-61
2022/04/06 03:07:10;;;;;;;24.65;9.82;;;;;;;;;;5067556;28;20105;-60
2022/04/06 03:09:36;;;;;;;30.80;12.00;;;;;;;;;;5066070;28;20052;-61
2022/04/06 03:12:05;;;;;;;28.55;10.88;;;;;;;;;;5066859;28;20581;-61
2022/04/06 03:14:31;;;;;;;26.35;9.93;;;;;;;;;;5081089;28;21330;-61
2022/04/06 03:16:57;;;;;;;19.50;7.53;;;;;;;;;;5049508;28;20044;-61
2022/04/06 03:19:24;;;;;;;19.80;8.38;;;;;;;;;;5065339;28;20056;-62
2022/04/06 03:21:50;;;;;;;21.95;8.73;;;;;;;;;;5066816;28;20085;-61
2022/04/06 03:24:16;;;;;;;16.50;6.70;;;;;;;;;;5064868;28;20233;-61
2022/04/06 03:26:42;;;;;;;19.45;5.70;;;;;;;;;;5082474;28;20045;-61
2022/04/06 03:29:08;;;;;;;18.80;6.40;;;;;;;;;;5065647;28;20123;-62
2022/04/06 03:31:34;;;;;;;18.35;4.75;;;;;;;;;;5067095;28;20032;-61
2022/04/06 03:34:00;;;;;;;13.50;4.75;;;;;;;;;;5066074;28;20433;-61
2022/04/06 03:36:26;;;;;;;12.93;5.68;;;;;;;;;;5066071;28;20125;-63
2022/04/06 03:38:53;;;;;;;18.67;5.68;;;;;;;;;;5063766;28;20425;-62
2022/04/06 03:41:19;;;;;;;15.38;4.65;;;;;;;;;;5065161;28;20036;-62
2022/04/06 03:43:45;;;;;;;12.30;4.22;;;;;;;;;;5066152;28;20033;-61
2022/04/06 03:46:11;;;;;;;13.95;3.97;;;;;;;;;;5047863;28;20108;-63
2022/04/06 03:48:37;;;;;;;13.90;4.20;;;;;;;;;;5048042;28;20040;-63
2022/04/06 03:51:03;;;;;;;15.38;4.82;;;;;;;;;;5064328;28;20064;-63
2022/04/06 03:53:29;;;;;;;17.30;4.65;;;;;;;;;;5047761;28;20086;-62
2022/04/06 03:55:56;;;;;;;12.75;4.90;;;;;;;;;;5046997;28;20033;-63
2022/04/06 03:58:22;;;;;;;12.93;4.53;;;;;;;;;;5064317;28;20418;-63
2022/04/06 04:00:48;;;;;;;12.73;4.40;;;;;;;;;;5064943;28;20041;-62
2022/04/06 04:03:14;;;;;;;11.00;4.57;;;;;;;;;;5067357;28;20036;-62
2022/04/06 04:05:40;;;;;;;11.15;4.15;;;;;;;;;;5052123;28;20041;-61
2022/04/06 04:08:06;;;;;;;10.32;3.20;;;;;;;;;;5069379;28;20045;-63
2022/04/06 04:10:32;;;;;;;13.18;4.10;;;;;;;;;;5069882;28;20040;-62
2022/04/06 04:12:58;;;;;;;13.95;4.50;;;;;;;;;;5069226;28;20067;-62
2022/04/06 04:15:24;;;;;;;13.77;5.00;;;;;;;;;;5069558;28;20044;-61
2022/04/06 04:17:50;;;;;;;15.70;3.80;;;;;;;;;;5069029;28;20709;-61
2022/04/06 04:20:16;;;;;;;14.27;5.10;;;;;;;;;;5067939;28;20036;-61
2022/04/06 04:22:42;;;;;;;16.27;4.82;;;;;;;;;;5065577;28;20047;-61
2022/04/06 04:25:10;;;;;;;11.65;4.32;;;;;;;;;;5067761;28;20048;-60
2022/04/06 04:27:36;;;;;;;16.08;5.32;;;;;;;;;;5069291;28;20406;-62
2022/04/06 04:30:03;;;;;;;14.38;6.03;;;;;;;;;;5068841;28;20056;-62
2022/04/06 04:32:29;;;;;;;18.67;6.63;;;;;;;;;;5069841;28;20490;-63
2022/04/06 04:34:55;;;;;;;16.08;6.70;;;;;;;;;;5069231;28;20032;-62
2022/04/06 04:37:21;;;;;;;21.98;8.27;;;;;;;;;;5067482;28;20048;-61
2022/04/06 04:39:47;;;;;;;18.23;6.03;;;;;;;;;;5068848;28;20124;-61
2022/04/06 04:42:13;;;;;;;18.40;6.35;;;;;;;;;;5069093;28;20041;-61
2022/04/06 04:44:39;;;;;;;16.05;6.80;;;;;;;;;;5067432;28;20048;-61
2022/04/06 04:47:05;;;;;;;21.90;7.20;;;;;;;;;;5065643;28;20037;-62
2022/04/06 04:49:32;;;;;;;20.30;7.93;;;;;;;;;;5066828;28;20443;-62
2022/04/06 04:51:59;;;;;;;22.08;8.70;;;;;;;;;;5067750;28;20075;-63
2022/04/06 04:54:26;;;;;;;26.23;8.93;;;;;;;;;;5067732;28;20410;-62
2022/04/06 04:56:52;;;;;;;21.67;9.20;;;;;;;;;;5066798;28;20460;-62
2022/04/06 04:59:19;;;;;;;27.50;10.43;;;;;;;;;;5067937;28;20087;-63
2022/04/06 05:01:45;;;;;;;19.83;6.88;;;;;;;;;;5063664;28;20089;-62
2022/04/06 05:04:11;;;;;;;24.88;9.95;;;;;;;;;;5066674;28;20052;-63
2022/04/06 05:06:38;;;;;;;23.75;9.77;;;;;;;;;;5067281;28;20040;-60
2022/04/06 05:09:04;;;;;;;27.00;10.55;;;;;;;;;;5067306;28;20386;-63
2022/04/06 05:11:30;;;;;;;27.45;11.02;;;;;;;;;;5068121;28;20032;-63
2022/04/06 05:13:56;;;;;;;32.03;11.77;;;;;;;;;;5067073;28;20123;-61
2022/04/06 05:16:22;;;;;;;32.47;12.40;;;;;;;;;;5067327;28;20052;-61
2022/04/06 05:18:48;;;;;;;29.50;11.70;;;;;;;;;;5049950;28;20417;-62
2022/04/06 05:21:14;;;;;;;32.58;12.02;;;;;;;;;;5065705;28;20075;-62
2022/04/06 05:23:40;;;;;;;31.45;11.75;;;;;;;;;;5067356;28;20119;-62
2022/04/06 05:26:06;;;;;;;28.88;11.18;;;;;;;;;;5067035;28;20494;-63
2022/04/06 05:28:32;;;;;;;22.55;10.65;;;;;;;;;;5066396;28;20621;-61
2022/04/06 05:30:58;;;;;;;26.65;10.52;;;;;;;;;;5049825;28;20044;-61
2022/04/06 05:33:25;;;;;;;33.00;12.27;;;;;;;;;;5066879;28;20044;-62
2022/04/06 05:35:51;;;;;;;28.10;12.10;;;;;;;;;;5068371;28;20047;-62
2022/04/06 05:38:17;;;;;;;28.40;12.90;;;;;;;;;;5061115;28;20044;-61
2022/04/06 05:40:43;;;;;;;24.10;12.15;;;;;;;;;;5066882;28;20058;-63
2022/04/06 05:43:12;;;;;;;30.27;11.45;;;;;;;;;;5069100;28;20151;-61
2022/04/06 05:45:39;;;;;;;28.60;11.57;;;;;;;;;;5069299;28;20042;-62
2022/04/06 05:48:05;;;;;;;25.45;9.68;;;;;;;;;;5068424;28;20421;-63
2022/04/06 05:50:31;;;;;;;28.52;9.38;;;;;;;;;;5067927;28;20405;-62
2022/04/06 05:52:58;;;;;;;30.73;11.32;;;;;;;;;;5047871;28;20094;-61
2022/04/06 05:55:24;;;;;;;32.67;12.93;;;;;;;;;;5067680;28;20386;-62
2022/04/06 05:57:50;;;;;;;29.98;14.10;;;;;;;;;;5067345;28;20040;-61
2022/04/06 06:00:16;;;;;;;35.83;12.98;;;;;;;;;;5066967;28;20136;-62
2022/04/06 06:02:43;;;;;;;27.50;12.20;;;;;;;;;;5066234;28;20501;-63
2022/04/06 06:05:09;;;;;;;33.72;13.65;;;;;;;;;;5049724;28;20048;-62
2022/04/06 06:07:35;;;;;;;35.65;14.65;;;;;;;;;;5067006;28;20127;-61
2022/04/06 06:10:02;;;;;;;21.67;10.55;;;;;;;;;;5066540;28;20041;-64
2022/04/06 06:12:29;;;;;;;30.60;12.63;;;;;;;;;;5066441;28;20046;-64
2022/04/06 06:14:56;;;;;;;31.52;14.23;;;;;;;;;;5068077;28;20040;-60
2022/04/06 06:17:22;;;;;;;37.83;15.70;;;;;;;;;;5067201;28;20564;-62
2022/04/06 06:19:48;;;;;;;30.27;13.43;;;;;;;;;;5066854;28;20041;-62
2022/04/06 06:22:14;;;;;;;38.00;16.60;;;;;;;;;;5065265;28;20044;-62
2022/04/06 06:24:40;;;;;;;25.42;12.10;;;;;;;;;;5064386;28;20051;-62
2022/04/06 06:27:07;;;;;;;32.35;16.27;;;;;;;;;;5065634;28;20544;-61
2022/04/06 06:29:33;;;;;;;35.38;16.15;;;;;;;;;;5067070;28;20040;-62
2022/04/06 06:32:00;;;;;;;33.83;13.95;;;;;;;;;;5066401;28;20051;-61
2022/04/06 06:34:26;;;;;;;27.48;13.75;;;;;;;;;;5064546;28;20040;-61
2022/04/06 06:36:52;;;;;;;33.30;16.08;;;;;;;;;;5065589;28;20190;-62
2022/04/06 06:39:18;;;;;;;31.70;15.07;;;;;;;;;;5065593;28;20052;-61
2022/04/06 06:41:44;;;;;;;26.20;13.38;;;;;;;;;;5064997;28;20046;-63
2022/04/06 06:44:10;;;;;;;33.78;13.93;;;;;;;;;;5065022;28;20040;-63
2022/04/06 06:46:36;;;;;;;30.05;14.32;;;;;;;;;;5047026;28;20399;-63
2022/04/06 06:49:03;;;;;;;30.63;14.40;;;;;;;;;;5066387;28;20297;-62
2022/04/06 06:51:33;;;;;;;27.00;13.20;;;;;;;;;;5065469;28;20439;-62
2022/04/06 06:53:59;;;;;;;29.88;13.93;;;;;;;;;;5067420;28;20371;-62
2022/04/06 06:56:26;;;;;;;22.42;13.05;;;;;;;;;;5066617;28;20033;-62
2022/04/06 06:58:52;;;;;;;16.58;7.82;;;;;;;;;;5064578;28;20623;-64
2022/04/06 07:01:18;;;;;;;18.52;9.57;;;;;;;;;;5066240;28;20367;-62
2022/04/06 07:03:45;;;;;;;17.30;9.82;;;;;;;;;;5068975;28;20119;-62
2022/04/06 07:06:11;;;;;;;21.65;11.88;;;;;;;;;;5066574;28;20048;-62
2022/04/06 07:08:37;;;;;;;20.35;10.95;;;;;;;;;;5067932;28;20041;-62
2022/04/06 07:11:04;;;;;;;20.98;10.43;;;;;;;;;;5068424;28;20343;-62
2022/04/06 07:13:30;;;;;;;16.88;8.48;;;;;;;;;;5065431;28;20051;-63
2022/04/06 07:15:56;;;;;;;19.35;10.30;;;;;;;;;;5047972;28;20482;-63
2022/04/06 07:18:23;;;;;;;22.40;10.88;;;;;;;;;;5049124;28;20154;-64
2022/04/06 07:20:49;;;;;;;20.85;10.45;;;;;;;;;;5067469;28;20113;-62
2022/04/06 07:23:15;;;;;;;18.38;11.30;;;;;;;;;;5066382;28;20044;-63
2022/04/06 07:25:41;;;;;;;17.25;9.77;;;;;;;;;;5048894;28;20508;-62
2022/04/06 07:28:07;;;;;;;15.90;8.32;;;;;;;;;;5067217;28;20123;-61
2022/04/06 07:30:34;;;;;;;17.40;8.05;;;;;;;;;;5066149;28;20056;-62
2022/04/06 07:33:00;;;;;;;15.75;7.88;;;;;;;;;;5065730;28;20045;-62
2022/04/06 07:35:31;;;;;;;20.05;8.52;;;;;;;;;;5067423;28;20071;-62
2022/04/06 07:37:57;;;;;;;11.55;5.05;;;;;;;;;;5051145;28;20041;-62
2022/04/06 07:40:24;;;;;;;17.77;6.88;;;;;;;;;;5070229;28;20051;-61
2022/04/06 07:42:51;;;;;;;12.98;4.13;;;;;;;;;;5071666;28;20398;-62
2022/04/06 07:45:18;;;;;;;18.10;6.35;;;;;;;;;;5071501;28;20113;-62
2022/04/06 07:47:45;;;;;;;16.50;5.60;;;;;;;;;;5069456;28;20271;-61
2022/04/06 07:50:14;;;;;;;14.00;5.15;;;;;;;;;;5070046;28;20045;-62
2022/04/06 07:52:41;;;;;;;14.50;6.50;;;;;;;;;;5071445;28;20387;-61
2022/04/06 07:55:08;;;;;;;11.32;4.03;;;;;;;;;;5070161;28;20075;-62
2022/04/06 07:57:34;;;;;;;13.02;6.05;;;;;;;;;;5069922;28;20070;-61
2022/04/06 08:00:03;;;;;;;17.42;6.25;;;;;;;;;;5071064;28;20056;-63
2022/04/06 08:02:29;;;;;;;13.15;5.28;;;;;;;;;;5069792;28;20405;-63
2022/04/06 08:04:55;;;;;;;14.85;6.80;;;;;;;;;;5064515;28;20041;-64
2022/04/06 08:07:21;;;;;;;14.00;5.75;;;;;;;;;;5069279;28;20434;-63
2022/04/06 08:09:47;;;;;;;9.50;5.00;;;;;;;;;;5068941;28;20032;-62
2022/04/06 08:12:13;;;;;;;14.27;5.28;;;;;;;;;;5070551;28;20075;-62
2022/04/06 08:14:39;;;;;;;11.38;4.88;;;;;;;;;;5070458;28;20109;-62
2022/04/06 08:17:05;;;;;;;10.55;5.88;;;;;;;;;;5069523;28;20036;-62
2022/04/06 08:19:31;;;;;;;14.35;4.95;;;;;;;;;;5085754;28;20129;-64
2022/04/06 08:21:57;;;;;;;15.93;7.07;;;;;;;;;;5052722;28;20033;-61
2022/04/06 08:24:23;;;;;;;11.88;4.90;;;;;;;;;;5070300;28;20044;-61
2022/04/06 08:26:49;;;;;;;14.82;5.88;;;;;;;;;;5068932;28;20044;-62
2022/04/06 08:29:16;;;;;;;16.05;6.15;;;;;;;;;;5070561;28;20036;-62
2022/04/06 08:31:45;;;;;;;12.70;4.82;;;;;;;;;;5085069;28;20048;-62
2022/04/06 08:34:11;;;;;;;16.10;6.15;;;;;;;;;;5069732;28;20090;-61
2022/04/06 08:36:39;;;;;;;14.07;6.22;;;;;;;;;;5069949;28;20052;-62
2022/04/06 08:39:06;;;;;;;11.90;4.55;;;;;;;;;;5069938;28;20509;-61
2022/04/06 08:41:32;;;;;;;12.70;4.78;;;;;;;;;;5069754;28;20093;-61
2022/04/06 08:43:59;;;;;;;15.55;5.07;;;;;;;;;;5071544;28;20128;-62
2022/04/06 08:46:25;;;;;;;16.25;5.57;;;;;;;;;;5069690;28;20044;-62
2022/04/06 08:48:52;;;;;;;15.70;4.80;;;;;;;;;;5053183;28;20051;-61
2022/04/06 08:51:18;;;;;;;14.52;5.78;;;;;;;;;;5052609;28;20075;-62
2022/04/06 08:53:45;;;;;;;8.98;3.03;;;;;;;;;;5070926;28;20116;-61
2022/04/06 08:56:15;;;;;;;20.02;6.30;;;;;;;;;;5069275;28;20506;-62
2022/04/06 08:58:42;;;;;;;13.07;4.88;;;;;;;;;;5069400;28;20056;-63
2022/04/06 09:01:12;;;;;;;11.98;4.43;;;;;;;;;;5068711;28;20110;-61
2022/04/06 09:03:38;;;;;;;10.95;3.10;;;;;;;;;;5068403;28;20478;-61
2022/04/06 09:06:11;;;;;;;14.05;5.53;;;;;;;;;;5069942;28;20075;-62
2022/04/06 09:08:39;;;;;;;;;;;;;;;;;;5069357;28;20056;-61
2022/04/06 09:11:13;;;;;;;19.92;5.43;;;;;;;;;;5068501;28;19917;-62
2022/04/06 09:13:44;;;;;;;15.20;4.88;;;;;;;;;;5066351;28;20072;-63
2022/04/06 09:16:12;;;;;;;11.35;3.45;;;;;;;;;;5069459;28;20062;-63
2022/04/06 09:18:40;;;;;;;14.23;3.33;;;;;;;;;;5069768;28;20055;-63
2022/04/06 09:21:08;;;;;;;14.25;4.60;;;;;;;;;;5070689;28;20135;-62
2022/04/06 09:23:35;;;;;;;11.20;3.28;;;;;;;;;;5069590;28;20036;-62
2022/04/06 09:26:03;;;;;;;16.20;3.55;;;;;;;;;;5069320;28;20122;-63
2022/04/06 09:28:29;;;;;;;10.60;2.95;;;;;;;;;;5069488;28;20079;-62
2022/04/06 09:30:55;;;;;;;15.35;4.22;;;;;;;;;;5070555;28;20502;-62
2022/04/06 09:33:22;;;;;;;15.35;4.53;;;;;;;;;;5052617;28;20044;-62
2022/04/06 09:35:48;;;;;;;16.13;3.95;;;;;;;;;;5070485;28;20041;-62
2022/04/06 09:38:22;;;;;;;15.45;4.85;;;;;;;;;;5069287;28;20048;-62
2022/04/06 09:41:06;;;;;;;15.68;4.05;;;;;;;;;;5069646;28;20625;-63
2022/04/06 09:43:35;;;;;;;12.48;3.50;;;;;;;;;;5069130;28;20117;-62
2022/04/06 09:49:13;;;;;;;17.00;3.65;;;;;;;;;;5069659;28;20561;-63
2022/04/06 09:51:41;;;;;;;15.32;3.50;;;;;;;;;;5068849;28;20494;-62
2022/04/06 09:54:08;;;;;;;12.15;3.22;;;;;;;;;;5070775;28;20048;-62
2022/04/06 09:56:35;;;;;;;12.60;2.45;;;;;;;;;;5052083;28;20047;-62
2022/04/06 09:59:02;;;;;;;14.98;3.42;;;;;;;;;;5068736;28;20130;-63
2022/04/06 10:01:33;;;;;;;12.25;3.17;;;;;;;;;;5068254;28;20789;-63
2022/04/06 10:04:02;;;;;;;13.05;2.70;;;;;;;;;;5069108;28;20464;-62
2022/04/06 10:06:31;;;;;;;10.35;2.72;;;;;;;;;;5051929;28;20475;-63
2022/04/06 10:08:57;;;;;;;13.50;3.45;;;;;;;;;;5068516;28;20036;-62
2022/04/06 10:11:23;;;;;;;13.27;2.92;;;;;;;;;;5068536;28;20049;-63
2022/04/06 10:13:50;;;;;;;13.90;2.60;;;;;;;;;;5068370;28;20045;-62
2022/04/06 10:16:17;;;;;;;11.55;2.42;;;;;;;;;;5068538;28;20491;-62
2022/04/06 10:18:44;;;;;;;16.48;3.40;;;;;;;;;;5068406;28;20487;-63
2022/04/06 10:21:16;;;;;;;13.90;2.83;;;;;;;;;;5068747;28;20045;-63
2022/04/06 10:24:01;;;;;;;20.15;3.55;;;;;;;;;;5068502;28;20048;-63
2022/04/06 10:26:40;;;;;;;16.17;3.90;;;;;;;;;;5068277;28;20045;-62
2022/04/06 10:29:06;;;;;;;16.75;3.63;;;;;;;;;;5068450;28;20048;-62
2022/04/06 10:31:32;;;;;;;11.02;2.60;;;;;;;;;;5068115;28;20040;-62
2022/04/06 10:34:17;;;;;;;14.55;3.22;;;;;;;;;;5051509;28;20032;-62
2022/04/06 10:36:44;;;;;;;18.08;3.72;;;;;;;;;;5069897;28;20058;-62
2022/04/06 10:39:11;;;;;;;12.02;2.38;;;;;;;;;;5068189;28;20055;-63
2022/04/06 10:41:41;;;;;;;14.10;3.13;;;;;;;;;;5068345;28;20090;-62
2022/04/06 10:44:08;;;;;;;16.20;3.08;;;;;;;;;;5069149;28;20457;-63
2022/04/06 10:46:41;;;;;;;16.80;3.47;;;;;;;;;;5069275;28;20550;-61
2022/04/06 10:49:11;;;;;;;17.05;3.38;;;;;;;;;;5068121;28;20052;-62
2022/04/06 10:51:38;;;;;;;22.08;4.07;;;;;;;;;;5067774;28;20087;-62
2022/04/06 10:54:14;;;;;;;14.73;3.42;;;;;;;;;;5067991;28;20040;-62
2022/04/06 10:56:49;;;;;;;20.08;4.28;;;;;;;;;;5067923;28;20044;-62
2022/04/06 10:59:16;;;;;;;20.92;3.97;;;;;;;;;;5069104;28;20059;-62
2022/04/06 11:01:48;;;;;;;23.80;4.07;;;;;;;;;;5051204;28;20379;-62
2022/04/06 11:04:21;;;;;;;16.25;4.10;;;;;;;;;;5067653;28;20044;-62
2022/04/06 11:06:59;;;;;;;20.15;4.68;;;;;;;;;;5067797;28;20379;-62
2022/04/06 11:12:12;;;;;;;16.65;4.70;;;;;;;;;;5068721;28;20123;-63
2022/04/06 11:14:39;;;;;;;17.83;5.38;;;;;;;;;;5071709;28;20494;-62
2022/04/06 11:17:24;;;;;;;21.85;5.50;;;;;;;;;;5073290;28;20078;-62
2022/04/06 11:19:51;;;;;;;21.35;6.15;;;;;;;;;;5054842;28;20070;-63
2022/04/06 11:22:17;;;;;;;20.55;5.20;;;;;;;;;;5071699;28;20056;-62
2022/04/06 11:24:43;;;;;;;14.80;4.55;;;;;;;;;;5071991;28;20044;-62
2022/04/06 11:27:10;;;;;;;15.52;4.43;;;;;;;;;;5073139;28;20048;-61
2022/04/06 11:29:37;;;;;;;22.08;5.60;;;;;;;;;;5071846;28;20040;-61
2022/04/06 11:32:04;;;;;;;13.85;4.55;;;;;;;;;;5071712;28;20075;-61
2022/04/06 11:34:40;;;;;;;17.65;5.07;;;;;;;;;;5073221;28;20454;-62
2022/04/06 11:37:07;;;;;;;14.15;5.10;;;;;;;;;;5073117;28;20040;-61
2022/04/06 11:39:34;;;;;;;17.63;4.90;;;;;;;;;;5072832;28;20383;-61
2022/04/06 11:42:04;;;;;;;24.63;6.60;;;;;;;;;;5073465;28;20102;-63
2022/04/06 11:44:30;;;;;;;18.75;5.35;;;;;;;;;;5071150;28;20158;-62
2022/04/06 11:46:56;;;;;;;19.27;5.38;;;;;;;;;;5054447;28;20048;-62
2022/04/06 11:49:24;;;;;;;22.35;6.15;;;;;;;;;;5071316;28;20383;-63
2022/04/06 11:51:54;;;;;;;28.52;6.80;;;;;;;;;;5054586;28;20471;-62
2022/04/06 11:54:21;;;;;;;23.98;5.95;;;;;;;;;;5071320;28;20464;-62
2022/04/06 11:56:54;;;;;;;26.05;5.47;;;;;;;;;;5070700;28;20097;-62
2022/04/06 11:59:22;;;;;;;18.08;4.07;;;;;;;;;;5053979;28;20499;-62
2022/04/06 12:01:48;;;;;;;23.17;4.53;;;;;;;;;;5071127;28;20048;-62
2022/04/06 12:04:22;;;;;;;19.77;4.13;;;;;;;;;;5070988;28;20044;-63
2022/04/06 12:06:49;;;;;;;17.83;4.15;;;;;;;;;;5070886;28;20044;-62
2022/04/06 12:09:16;;;;;;;25.52;5.43;;;;;;;;;;5072169;28;20122;-63
2022/04/06 12:11:42;;;;;;;19.48;3.72;;;;;;;;;;5070602;28;20063;-62
2022/04/06 12:14:10;;;;;;;16.23;2.97;;;;;;;;;;5070579;28;20048;-63
2022/04/06 12:16:38;;;;;;;19.00;3.42;;;;;;;;;;5072097;28;20123;-63
2022/04/06 12:19:08;;;;;;;15.10;3.22;;;;;;;;;;5070821;28;20048;-63
2022/04/06 12:21:39;;;;;;;16.98;3.30;;;;;;;;;;5070818;28;20052;-63
2022/04/06 12:24:06;;;;;;;12.60;1.90;;;;;;;;;;5069812;28;20083;-63
2022/04/06 12:26:45;;;;;;;17.13;3.35;;;;;;;;;;5053516;28;20072;-62
2022/04/06 12:29:13;;;;;;;12.48;1.90;;;;;;;;;;5071756;28;20458;-62
2022/04/06 12:31:41;;;;;;;15.15;2.65;;;;;;;;;;5070265;28;20044;-62
2022/04/06 12:34:11;;;;;;;15.40;2.65;;;;;;;;;;5070248;28;20044;-62
2022/04/06 12:36:37;;;;;;;13.90;2.22;;;;;;;;;;5071757;28;20115;-62
2022/04/06 12:39:15;;;;;;;13.88;1.90;;;;;;;;;;5070207;28;20052;-62
2022/04/06 12:42:06;;;;;;;14.52;2.58;;;;;;;;;;5070093;28;20126;-62
2022/04/06 12:44:33;;;;;;;11.85;1.60;;;;;;;;;;5071523;28;20472;-62
2022/04/06 12:47:00;;;;;;;14.85;2.33;;;;;;;;;;5071679;28;20037;-62
2022/04/06 12:49:26;;;;;;;14.05;2.10;;;;;;;;;;5086949;28;20383;-61
2022/04/06 12:52:05;;;;;;;13.55;1.92;;;;;;;;;;5070520;28;20383;-62
2022/04/06 12:54:31;;;;;;;11.60;2.13;;;;;;;;;;5070255;28;20394;-62
2022/04/06 12:57:08;;;;;;;13.77;2.80;;;;;;;;;;5070049;28;20056;-61
2022/04/06 12:59:53;;;;;;;14.40;2.05;;;;;;;;;;5052865;28;20052;-62
2022/04/06 13:02:22;;;;;;;14.45;2.53;;;;;;;;;;5053750;28;20056;-62
2022/04/06 13:04:48;;;;;;;10.93;1.88;;;;;;;;;;5053271;28;20040;-62
2022/04/06 13:07:14;;;;;;;13.85;2.05;;;;;;;;;;5071007;28;20198;-62
2022/04/06 13:09:48;;;;;;;16.00;1.92;;;;;;;;;;5069562;28;20087;-62
2022/04/06 13:12:14;;;;;;;14.27;2.45;;;;;;;;;;5071299;28;20070;-62
2022/04/06 13:14:40;;;;;;;10.52;1.63;;;;;;;;;;5069467;28;20050;-62
2022/04/06 13:17:06;;;;;;;9.40;1.33;;;;;;;;;;5069929;28;20560;-62
2022/04/06 13:19:32;;;;;;;15.93;1.90;;;;;;;;;;5069424;28;20563;-62
2022/04/06 13:21:59;;;;;;;15.35;1.73;;;;;;;;;;5069423;28;20076;-61
2022/04/06 13:24:25;;;;;;;10.50;0.98;;;;;;;;;;5069748;28;20073;-61
2022/04/06 13:26:51;;;;;;;13.68;1.65;;;;;;;;;;5069090;28;20128;-61
2022/04/06 13:29:17;;;;;;;13.15;2.10;;;;;;;;;;5069783;28;20032;-62
2022/04/06 13:31:44;;;;;;;13.93;1.80;;;;;;;;;;5052881;28;20040;-61
2022/04/06 13:34:12;;;;;;;8.82;1.50;;;;;;;;;;5070463;28;20044;-61
2022/04/06 13:36:40;;;;;;;12.05;1.92;;;;;;;;;;5068753;28;20127;-63
2022/04/06 13:39:06;;;;;;;13.00;1.42;;;;;;;;;;5069291;28;20048;-62
2022/04/06 13:41:32;;;;;;;11.63;1.58;;;;;;;;;;5070665;28;20123;-62
2022/04/06 13:43:58;;;;;;;12.07;1.60;;;;;;;;;;5052582;28;20268;-61
2022/04/06 13:46:24;;;;;;;11.80;2.03;;;;;;;;;;5069131;28;20561;-62
2022/04/06 13:48:51;;;;;;;9.80;1.83;;;;;;;;;;5052658;28;20051;-62
2022/04/06 13:51:19;;;;;;;13.43;1.60;;;;;;;;;;5052249;28;20047;-62
2022/04/06 13:53:45;;;;;;;8.43;1.23;;;;;;;;;;5052003;28;20040;-62
2022/04/06 13:56:11;;;;;;;11.32;1.63;;;;;;;;;;5070367;28;20051;-61
2022/04/06 13:58:37;;;;;;;11.52;1.27;;;;;;;;;;5069133;28;20383;-62
2022/04/06 14:01:04;;;;;;;10.15;1.65;;;;;;;;;;5068980;28;20506;-63
2022/04/06 14:03:30;;;;;;;13.80;1.58;;;;;;;;;;5070132;28;20186;-62
2022/04/06 14:05:57;;;;;;;10.10;1.08;;;;;;;;;;5049117;28;20170;-62
2022/04/06 14:08:31;;;;;;;7.95;1.52;;;;;;;;;;5067452;28;20033;-63
2022/04/06 14:10:57;;;;;;;9.90;1.17;;;;;;;;;;5067861;28;20066;-62
2022/04/06 14:13:25;;;;;;;8.73;1.17;;;;;;;;;;5068083;28;20179;-62
2022/04/06 14:15:51;;;;;;;9.38;1.23;;;;;;;;;;5084852;28;20248;-62
2022/04/06 14:18:19;;;;;;;10.98;1.58;;;;;;;;;;5051902;28;20041;-63
2022/04/06 14:20:46;;;;;;;10.55;1.83;;;;;;;;;;5047660;28;20040;-61
2022/04/06 14:23:19;;;;;;;11.57;1.60;;;;;;;;;;5047702;28;20044;-61
2022/04/06 14:25:45;;;;;;;8.85;1.23;;;;;;;;;;5068473;28;20036;-62
2022/04/06 14:28:12;;;;;;;8.50;0.88;;;;;;;;;;5067125;28;20059;-62
2022/04/06 14:30:38;;;;;;;7.55;0.98;;;;;;;;;;5066842;28;20106;-62
2022/04/06 14:33:05;;;;;;;9.10;1.15;;;;;;;;;;5066629;28;20044;-63
2022/04/06 14:35:31;;;;;;;8.05;1.13;;;;;;;;;;5066830;28;20040;-61
2022/04/06 14:38:03;;;;;;;6.78;1.00;;;;;;;;;;5065897;28;20086;-62